Terminal Aerodrome Forecast
Issued by NWS Wakefield, VA

Home | Current Version | Previous Version | Text Only | Print | Product List | Glossary On
Versions: 1 2 3 4 5 6 7 8 9 10 11 12 13 14 15 16 17 18 19 20 21 22
218
FTUS41 KAKQ 252326
TAFSBY
TAF
KSBY 252326Z 2600/2624 25008KT P6SM VCSH SCT025 BKN040
      TEMPO 2600/2604 BKN025
     FM260600 29008KT P6SM SCT050
     FM261000 30007KT P6SM SCT200=

USA.gov is the U.S. government's official web portal to all federal, state and local government web resources and services.